Time;durP1;ratioP1;P1;durP2;ratioP2;P2;SDS_P1;SDS_P2;PMS_P1;PMS_P2;Temp;Humidity;BMP_temperature;BMP_pressure;BME280_temperature;BME280_humidity;BME280_pressure;Samples;Min_cycle;Max_cycle;Signal;HPM_P1;HPM_P2
2023/12/22 00:00:04;;;;;;;0.20;0.20;;;;;;;6.74;82.78;91174.28;2048799;70;20150;-83
2023/12/22 00:02:51;;;;;;;0.10;0.10;;;;;;;6.87;84.20;91211.97;2050560;70;20146;-84
2023/12/22 00:05:18;;;;;;;0.30;0.20;;;;;;;6.93;85.09;91195.50;2050795;70;20625;-82
2023/12/22 00:07:47;;;;;;;0.20;0.20;;;;;;;6.92;81.99;91196.13;2053014;70;20139;-83
2023/12/22 00:10:15;;;;;;;0.20;0.20;;;;;;;6.95;83.03;91228.44;2052246;70;20182;-83
2023/12/22 00:12:44;;;;;;;0.20;0.20;;;;;;;7.06;83.14;91252.78;2050757;70;20149;-84
2023/12/22 00:15:09;;;;;;;0.80;0.20;;;;;;;7.04;83.11;91249.88;2050437;70;20138;-83
2023/12/22 00:17:35;;;;;;;0.52;0.20;;;;;;;6.87;84.26;91237.16;2050715;70;20158;-83
2023/12/22 00:20:09;;;;;;;0.20;0.20;;;;;;;6.83;84.81;91242.56;2047613;70;20139;-83
2023/12/22 00:22:36;;;;;;;0.20;0.20;;;;;;;6.77;84.28;91217.06;2050694;70;20641;-83
2023/12/22 00:25:02;;;;;;;0.17;0.17;;;;;;;6.69;82.59;91200.63;2052583;70;20213;-84
2023/12/22 00:27:28;;;;;;;0.20;0.15;;;;;;;6.88;82.82;91194.59;2052395;70;20251;-83
2023/12/22 00:29:55;;;;;;;0.82;0.20;;;;;;;7.03;79.51;91189.69;2051363;70;20154;-83
2023/12/22 00:32:21;;;;;;;0.85;0.28;;;;;;;6.92;81.15;91196.84;2050763;70;20170;-82
2023/12/22 00:34:46;;;;;;;0.15;0.15;;;;;;;6.99;80.24;91181.81;2050934;70;20181;-83
2023/12/22 00:37:12;;;;;;;1.35;0.10;;;;;;;6.88;81.18;91123.94;2054784;69;20181;-84
2023/12/22 00:39:38;;;;;;;0.13;0.13;;;;;;;6.92;83.27;91176.53;2051440;70;20144;-83
2023/12/22 00:42:04;;;;;;;0.25;0.25;;;;;;;7.01;83.03;91162.34;2055231;70;20581;-84
2023/12/22 00:44:30;;;;;;;0.20;0.20;;;;;;;6.73;84.82;91203.59;2055304;70;20603;-83
2023/12/22 00:46:56;;;;;;;0.38;0.28;;;;;;;6.29;85.20;91132.91;2055067;69;20146;-85
2023/12/22 00:49:22;;;;;;;1.00;0.20;;;;;;;6.40;84.92;91136.22;2051108;70;20583;-83
2023/12/22 00:51:48;;;;;;;0.20;0.20;;;;;;;6.58;84.21;91163.00;2051351;70;20619;-83
2023/12/22 00:54:17;;;;;;;0.80;0.30;;;;;;;6.80;83.46;91168.28;2055045;70;20208;-84
2023/12/22 00:56:43;;;;;;;0.30;0.17;;;;;;;6.71;84.05;91155.25;2054822;70;20169;-83
2023/12/22 00:59:09;;;;;;;0.50;0.30;;;;;;;6.84;84.06;91143.31;2051248;70;20150;-84
2023/12/22 01:01:34;;;;;;;0.30;0.20;;;;;;;6.83;84.11;91137.00;2054979;70;20154;-84
2023/12/22 01:04:01;;;;;;;0.10;0.10;;;;;;;6.71;84.56;91152.44;2054763;69;20181;-83
2023/12/22 01:06:29;;;;;;;1.50;0.20;;;;;;;6.74;84.46;91154.72;2054922;69;20237;-83
2023/12/22 01:08:54;;;;;;;0.20;0.17;;;;;;;6.88;84.25;91158.22;2051209;70;20229;-83
2023/12/22 01:11:26;;;;;;;1.50;0.20;;;;;;;6.56;83.37;91154.53;2054807;70;20190;-84
2023/12/22 01:13:52;;;;;;;0.20;0.20;;;;;;;6.75;82.48;91141.47;2051795;69;20260;-84
2023/12/22 01:16:21;;;;;;;0.57;0.30;;;;;;;6.69;82.76;91147.47;2047573;70;20601;-84
2023/12/22 01:18:46;;;;;;;0.30;0.20;;;;;;;6.51;83.55;91146.56;2051278;70;20150;-84
2023/12/22 01:21:12;;;;;;;0.38;0.38;;;;;;;6.81;83.22;91161.31;2053797;70;20158;-84
2023/12/22 01:23:38;;;;;;;2.28;0.20;;;;;;;6.81;83.75;91150.13;2051914;70;20145;-84
2023/12/22 01:26:04;;;;;;;0.10;0.10;;;;;;;6.65;84.12;91149.34;2051177;70;20138;-84
2023/12/22 01:28:29;;;;;;;0.20;0.20;;;;;;;6.64;84.41;91165.38;2051097;70;20146;-84
2023/12/22 01:30:55;;;;;;;0.40;0.30;;;;;;;6.63;84.25;91170.25;2051800;70;20146;-84
2023/12/22 01:33:21;;;;;;;3.35;0.30;;;;;;;6.75;83.72;91172.94;2048045;70;20221;-83
2023/12/22 01:35:46;;;;;;;1.00;0.20;;;;;;;6.76;83.56;91177.19;2057323;69;20212;-83
2023/12/22 01:38:12;;;;;;;0.90;0.20;;;;;;;6.72;84.36;91176.25;2054723;69;20186;-83
2023/12/22 01:40:38;;;;;;;0.80;0.30;;;;;;;6.65;85.05;91202.47;2056433;69;20209;-84
2023/12/22 01:43:04;;;;;;;0.35;0.20;;;;;;;6.48;84.83;91198.13;2058130;69;20525;-84
2023/12/22 01:45:30;;;;;;;0.30;0.30;;;;;;;6.66;84.09;91185.06;2051723;70;20150;-84
2023/12/22 01:47:55;;;;;;;0.93;0.30;;;;;;;6.65;84.02;91208.78;2054264;70;20209;-83
2023/12/22 01:50:23;;;;;;;1.55;0.20;;;;;;;6.61;84.86;91223.28;2054758;70;20506;-83
2023/12/22 01:52:48;;;;;;;0.20;0.20;;;;;;;6.58;85.34;91218.94;2055423;70;20142;-83
2023/12/22 01:55:17;;;;;;;0.73;0.20;;;;;;;6.59;84.92;91206.38;2053974;70;20138;-84
2023/12/22 01:57:44;;;;;;;0.20;0.20;;;;;;;6.52;83.88;91190.66;2055053;70;20173;-83
2023/12/22 02:00:11;;;;;;;0.10;0.10;;;;;;;6.69;81.48;91199.88;2054865;69;20146;-85
2023/12/22 02:02:42;;;;;;;1.85;0.20;;;;;;;6.60;84.55;91204.34;2057176;69;20146;-83
2023/12/22 02:05:11;;;;;;;0.20;0.20;;;;;;;6.62;85.08;91199.56;2054913;70;20656;-83
2023/12/22 02:07:40;;;;;;;1.67;0.17;;;;;;;6.76;84.06;91182.06;2054900;69;20169;-83
2023/12/22 02:10:11;;;;;;;0.50;0.40;;;;;;;6.64;84.20;91232.50;2053912;69;20153;-84
2023/12/22 02:12:37;;;;;;;0.43;0.25;;;;;;;6.71;83.73;91272.69;2054234;69;20241;-84
2023/12/22 02:15:05;;;;;;;1.10;0.20;;;;;;;6.66;83.77;91291.31;2054589;70;20184;-84
2023/12/22 02:18:01;;;;;;;0.43;0.22;;;;;;;6.61;84.74;91309.25;2051479;70;20212;-84
2023/12/22 02:20:29;;;;;;;1.35;0.10;;;;;;;6.54;84.51;91313.06;2051335;70;20158;-84
2023/12/22 02:22:55;;;;;;;0.17;0.17;;;;;;;6.28;83.73;91290.75;2051577;70;20689;-81
2023/12/22 02:25:21;;;;;;;1.02;0.20;;;;;;;6.28;83.42;91270.47;2047991;70;20147;-81
2023/12/22 02:27:49;;;;;;;1.13;0.28;;;;;;;6.48;83.39;91302.28;2051365;70;20190;-82
2023/12/22 02:30:31;;;;;;;0.22;0.20;;;;;;;6.66;82.33;91280.16;2051448;70;20218;-83
2023/12/22 02:33:00;;;;;;;1.20;0.20;;;;;;;6.52;84.09;91271.03;2051476;70;20161;-83
2023/12/22 02:35:41;;;;;;;0.30;0.15;;;;;;;6.53;84.10;91272.47;2051447;70;20590;-82
2023/12/22 02:38:09;;;;;;;0.88;0.20;;;;;;;6.52;83.39;91260.56;2051533;70;20138;-83
2023/12/22 02:40:37;;;;;;;0.17;0.17;;;;;;;6.48;83.49;91257.56;2047975;70;20146;-82
2023/12/22 02:43:12;;;;;;;0.28;0.28;;;;;;;6.52;84.58;91265.44;2051410;70;20637;-83
2023/12/22 02:45:41;;;;;;;0.45;0.13;;;;;;;6.54;83.92;91263.44;2051393;70;20209;-82
2023/12/22 02:48:07;;;;;;;0.57;0.30;;;;;;;6.58;84.06;91269.25;2047829;70;20142;-83
2023/12/22 02:50:39;;;;;;;2.22;0.30;;;;;;;6.45;84.71;91286.72;2051205;70;20554;-84
2023/12/22 02:53:08;;;;;;;1.20;0.25;;;;;;;6.50;84.25;91288.38;2047769;70;20143;-84
2023/12/22 02:55:39;;;;;;;2.05;0.30;;;;;;;6.54;84.32;91268.31;2051339;70;20150;-85
2023/12/22 02:58:09;;;;;;;1.65;0.32;;;;;;;6.49;84.60;91247.09;2053668;70;20164;-83
2023/12/22 03:00:35;;;;;;;0.30;0.30;;;;;;;5.74;87.45;91252.16;2051562;70;20233;-84
2023/12/22 03:03:07;;;;;;;0.40;0.32;;;;;;;6.07;86.62;91265.84;2051503;70;20170;-84
2023/12/22 03:05:33;;;;;;;1.52;0.40;;;;;;;6.25;85.57;91261.25;2051312;70;20257;-84
2023/12/22 03:08:01;;;;;;;0.35;0.30;;;;;;;6.28;85.44;91265.59;2051509;70;20154;-84
2023/12/22 03:10:33;;;;;;;0.30;0.30;;;;;;;6.39;85.09;91264.06;2051689;70;20154;-84
2023/12/22 03:13:08;;;;;;;0.38;0.30;;;;;;;6.38;85.21;91242.31;2051671;70;20176;-83
2023/12/22 03:15:38;;;;;;;3.03;0.38;;;;;;;6.40;84.71;91264.78;2053672;70;20153;-83
2023/12/22 03:18:13;;;;;;;0.40;0.40;;;;;;;6.21;85.64;91260.31;2053139;70;20143;-84
2023/12/22 03:20:42;;;;;;;0.30;0.30;;;;;;;6.29;85.29;91288.69;2051902;70;20629;-82
2023/12/22 03:23:11;;;;;;;0.38;0.30;;;;;;;6.22;84.79;91307.19;2051813;70;20131;-83
2023/12/22 03:25:38;;;;;;;0.60;0.30;;;;;;;6.11;86.42;91325.47;2048854;70;20151;-83
2023/12/22 03:28:04;;;;;;;0.47;0.40;;;;;;;6.18;85.87;91325.78;2051945;70;20154;-83
2023/12/22 03:30:30;;;;;;;0.20;0.20;;;;;;;6.05;83.80;91268.53;2052167;70;20140;-83
2023/12/22 03:33:06;;;;;;;0.57;0.20;;;;;;;6.16;82.88;91269.81;2051837;69;20205;-83
2023/12/22 03:35:39;;;;;;;0.85;0.20;;;;;;;6.30;83.70;91304.81;2051827;70;20221;-84
2023/12/22 03:38:10;;;;;;;0.20;0.20;;;;;;;6.10;80.65;91295.34;2048259;70;20147;-83
2023/12/22 03:40:48;;;;;;;2.17;0.20;;;;;;;6.23;76.41;91285.53;2051867;70;20180;-83
2023/12/22 03:43:14;;;;;;;0.20;0.20;;;;;;;6.26;78.83;91271.06;2051976;70;20170;-84
2023/12/22 03:45:46;;;;;;;0.43;0.20;;;;;;;6.17;81.15;91262.88;2048688;70;20378;-83
2023/12/22 03:48:11;;;;;;;0.43;0.20;;;;;;;6.40;81.37;91270.38;2051991;70;20169;-83
2023/12/22 03:50:38;;;;;;;0.25;0.20;;;;;;;6.12;84.04;91295.47;2051787;70;20517;-82
2023/12/22 03:53:05;;;;;;;0.13;0.13;;;;;;;6.18;84.00;91292.25;2048261;70;20617;-83
2023/12/22 03:55:39;;;;;;;0.10;0.10;;;;;;;6.16;84.42;91281.72;2048776;70;20205;-83
2023/12/22 03:58:07;;;;;;;0.20;0.20;;;;;;;6.03;80.99;91318.72;2054760;69;20166;-82
2023/12/22 04:00:34;;;;;;;1.17;0.45;;;;;;;6.26;81.54;91320.66;2054969;69;20251;-82
2023/12/22 04:02:59;;;;;;;0.60;0.20;;;;;;;5.97;80.42;91282.78;2051315;70;20208;-82
2023/12/22 04:05:25;;;;;;;0.63;0.30;;;;;;;6.00;81.53;91286.41;2059680;69;20176;-82
2023/12/22 04:07:51;;;;;;;2.25;0.40;;;;;;;6.25;81.82;91319.19;2060258;69;20201;-83
2023/12/22 04:10:26;;;;;;;0.55;0.30;;;;;;;6.11;82.91;91322.69;2057186;70;20236;-83
2023/12/22 04:12:54;;;;;;;0.20;0.20;;;;;;;5.99;82.96;91287.75;2056166;69;20760;-83
2023/12/22 04:15:28;;;;;;;0.40;0.30;;;;;;;5.78;85.25;91308.25;2057281;69;20172;-83
2023/12/22 04:17:55;;;;;;;1.58;0.20;;;;;;;5.98;80.69;91317.03;2055045;70;20205;-83
2023/12/22 04:20:28;;;;;;;0.63;0.20;;;;;;;6.15;79.05;91273.94;2054970;69;20169;-83
2023/12/22 04:22:56;;;;;;;0.10;0.10;;;;;;;6.01;79.26;91279.50;2056876;69;20411;-84
2023/12/22 04:25:25;;;;;;;0.15;0.10;;;;;;;5.96;81.20;91302.97;2051046;70;20156;-83
2023/12/22 04:27:51;;;;;;;0.77;0.30;;;;;;;6.18;80.29;91306.94;2054766;70;20192;-83
2023/12/22 04:30:16;;;;;;;0.10;0.10;;;;;;;6.19;81.53;91299.31;2054744;70;20624;-83
2023/12/22 04:32:42;;;;;;;0.45;0.35;;;;;;;6.05;82.39;91282.53;2050574;70;20158;-84
2023/12/22 04:35:09;;;;;;;0.20;0.20;;;;;;;5.92;83.76;91289.50;2056345;69;20153;-82
2023/12/22 04:37:36;;;;;;;0.30;0.20;;;;;;;5.92;78.83;91302.75;2054554;69;20161;-83
2023/12/22 04:40:03;;;;;;;0.85;0.50;;;;;;;6.23;79.79;91303.06;2056854;69;20174;-84
2023/12/22 04:42:29;;;;;;;0.20;0.20;;;;;;;6.02;82.03;91292.84;2054760;69;20162;-84
2023/12/22 04:44:55;;;;;;;0.57;0.20;;;;;;;6.10;82.41;91300.94;2054678;69;20157;-84
2023/12/22 04:47:21;;;;;;;0.98;0.40;;;;;;;6.04;83.03;91328.53;2054949;69;20659;-84
2023/12/22 04:49:47;;;;;;;0.30;0.30;;;;;;;6.02;83.31;91295.63;2056793;70;20205;-83
2023/12/22 04:52:13;;;;;;;1.10;0.20;;;;;;;6.24;81.89;91314.97;2056447;69;20174;-83
2023/12/22 04:54:40;;;;;;;1.10;0.38;;;;;;;6.21;82.13;91339.25;2054758;69;20173;-83
2023/12/22 04:57:05;;;;;;;0.70;0.30;;;;;;;6.08;82.14;91323.91;2057128;69;20518;-82
2023/12/22 04:59:34;;;;;;;1.10;0.50;;;;;;;6.21;82.07;91333.66;2054909;69;20273;-82
2023/12/22 05:02:00;;;;;;;0.63;0.20;;;;;;;6.16;80.73;91336.88;2054680;69;20228;-83
2023/12/22 05:04:25;;;;;;;1.58;0.20;;;;;;;6.24;81.31;91324.06;2054612;69;20154;-82
2023/12/22 05:06:53;;;;;;;0.25;0.20;;;;;;;5.96;82.20;91344.88;2054364;69;20150;-82
2023/12/22 05:09:20;;;;;;;0.55;0.30;;;;;;;6.10;82.30;91354.03;2056791;69;20158;-82
2023/12/22 05:11:52;;;;;;;0.57;0.38;;;;;;;6.25;81.93;91409.34;2056672;69;20170;-83
2023/12/22 05:14:18;;;;;;;1.17;0.55;;;;;;;6.27;81.87;91409.44;2054954;70;20153;-81
2023/12/22 05:16:43;;;;;;;1.15;0.75;;;;;;;6.20;81.94;91407.66;2056832;69;20157;-82
2023/12/22 05:19:10;;;;;;;0.77;0.43;;;;;;;6.25;82.01;91442.88;2054512;69;20161;-82
2023/12/22 05:21:38;;;;;;;0.30;0.30;;;;;;;6.21;82.33;91450.31;2052688;70;20630;-82
2023/12/22 05:24:05;;;;;;;1.90;0.40;;;;;;;6.26;81.67;91446.41;2051732;70;20165;-82
2023/12/22 05:26:31;;;;;;;0.55;0.32;;;;;;;6.04;81.69;91454.97;2048028;70;20513;-82
2023/12/22 05:28:57;;;;;;;0.20;0.20;;;;;;;5.75;80.27;91449.81;2051558;70;20146;-82
2023/12/22 05:31:23;;;;;;;0.20;0.20;;;;;;;5.68;80.46;91452.84;2050721;70;20173;-82
2023/12/22 05:33:48;;;;;;;0.30;0.30;;;;;;;5.56;80.89;91444.50;2051197;70;20597;-82
2023/12/22 05:36:15;;;;;;;0.65;0.30;;;;;;;5.83;81.01;91413.97;2051309;70;20154;-82
2023/12/22 05:38:41;;;;;;;1.38;0.25;;;;;;;5.79;81.45;91387.88;2051012;70;20245;-83
2023/12/22 05:41:08;;;;;;;1.63;0.20;;;;;;;5.83;82.06;91385.31;2051385;70;20864;-83
2023/12/22 05:43:33;;;;;;;0.32;0.20;;;;;;;6.01;81.89;91374.47;2051694;70;20537;-83
2023/12/22 05:45:59;;;;;;;1.98;0.20;;;;;;;5.59;84.15;91388.19;2051675;70;20173;-83
2023/12/22 05:48:27;;;;;;;0.30;0.30;;;;;;;5.79;83.56;91383.03;2051443;70;20135;-83
2023/12/22 05:50:56;;;;;;;0.45;0.20;;;;;;;5.84;83.49;91390.28;2051146;70;20166;-82
2023/12/22 05:53:23;;;;;;;1.05;0.30;;;;;;;5.85;83.30;91411.28;2051391;70;20222;-82
2023/12/22 05:55:49;;;;;;;1.17;0.40;;;;;;;5.86;83.37;91409.97;2051181;70;20173;-82
2023/12/22 05:58:16;;;;;;;0.77;0.40;;;;;;;5.84;83.36;91425.88;2050908;70;20265;-82
2023/12/22 06:00:42;;;;;;;0.55;0.30;;;;;;;5.80;83.33;91404.00;2047705;70;20161;-83
2023/12/22 06:03:08;;;;;;;0.95;0.82;;;;;;;5.82;83.76;91439.72;2047875;70;20162;-84
2023/12/22 06:05:33;;;;;;;1.20;0.28;;;;;;;5.80;83.35;91431.22;2051092;70;20173;-83
2023/12/22 06:08:00;;;;;;;2.15;0.30;;;;;;;5.64;84.16;91427.50;2051045;70;20147;-84
2023/12/22 06:10:27;;;;;;;2.00;1.08;;;;;;;5.06;85.71;91426.94;2051227;70;20149;-83
2023/12/22 06:12:53;;;;;;;2.72;1.15;;;;;;;5.16;85.57;91454.72;2050271;70;20229;-84
2023/12/22 06:15:18;;;;;;;1.42;1.15;;;;;;;5.28;86.29;91460.31;2054588;70;20150;-83
2023/12/22 06:17:44;;;;;;;2.25;1.35;;;;;;;5.46;85.05;91458.59;2054929;69;20146;-83
2023/12/22 06:20:10;;;;;;;1.63;1.15;;;;;;;5.46;84.80;91480.19;2054219;70;20182;-83
2023/12/22 06:22:35;;;;;;;2.40;1.20;;;;;;;5.61;84.26;91476.91;2057167;70;20228;-83
2023/12/22 06:25:07;;;;;;;1.33;0.70;;;;;;;5.59;84.67;91448.88;2057002;69;20134;-83
2023/12/22 06:27:33;;;;;;;3.53;0.60;;;;;;;5.55;84.08;91431.88;2051425;70;20594;-84
2023/12/22 06:30:00;;;;;;;1.25;0.20;;;;;;;5.72;84.16;91450.28;2048335;70;20503;-83
2023/12/22 06:32:26;;;;;;;1.83;0.45;;;;;;;5.58;84.16;91475.31;2049891;70;20230;-84
2023/12/22 06:34:51;;;;;;;0.68;0.40;;;;;;;5.63;83.40;91460.25;2051196;70;20158;-83
2023/12/22 06:37:18;;;;;;;2.10;1.05;;;;;;;5.17;84.74;91472.16;2047478;70;20163;-84
2023/12/22 06:39:45;;;;;;;3.17;0.98;;;;;;;5.51;84.06;91462.34;2047660;70;20150;-84
2023/12/22 06:42:12;;;;;;;3.75;1.00;;;;;;;5.46;84.07;91477.41;2051507;70;20228;-83
2023/12/22 06:44:38;;;;;;;1.08;0.45;;;;;;;5.50;84.50;91511.16;2051367;70;20209;-83
2023/12/22 06:47:05;;;;;;;0.60;0.30;;;;;;;5.46;83.41;91499.72;2047872;70;20158;-82
2023/12/22 06:49:30;;;;;;;1.27;0.50;;;;;;;5.35;80.07;91506.75;2051400;70;20145;-84
2023/12/22 06:51:56;;;;;;;0.50;0.40;;;;;;;5.24;77.79;91479.59;2051586;70;20190;-82
2023/12/22 06:54:22;;;;;;;0.40;0.30;;;;;;;5.60;77.64;91489.41;2051533;70;20142;-81
2023/12/22 06:56:48;;;;;;;0.40;0.30;;;;;;;5.69;79.96;91490.63;2051472;70;20193;-82
2023/12/22 06:59:14;;;;;;;1.23;0.60;;;;;;;5.74;80.86;91520.97;2051866;70;20146;-81
2023/12/22 07:01:41;;;;;;;1.30;0.60;;;;;;;5.44;81.53;91507.97;2052194;70;20150;-81
2023/12/22 07:04:09;;;;;;;0.63;0.55;;;;;;;5.53;80.85;91507.13;2051963;70;20621;-81
2023/12/22 07:06:35;;;;;;;0.70;0.68;;;;;;;5.64;81.08;91508.47;2052062;70;20654;-82
2023/12/22 07:09:11;;;;;;;1.95;0.68;;;;;;;5.63;82.25;91529.31;2051977;70;20764;-80
2023/12/22 07:11:39;;;;;;;1.52;0.50;;;;;;;5.79;81.65;91527.50;2052016;70;20146;-82
2023/12/22 07:14:05;;;;;;;1.90;0.52;;;;;;;5.29;80.47;91482.00;2051958;70;20199;-81
2023/12/22 07:16:32;;;;;;;1.48;0.50;;;;;;;5.63;80.51;91512.56;2052040;70;20177;-80
2023/12/22 07:18:58;;;;;;;0.98;0.50;;;;;;;5.55;81.00;91540.75;2051948;70;20229;-81
2023/12/22 07:21:23;;;;;;;1.98;0.80;;;;;;;5.65;82.09;91572.06;2052056;70;20166;-81
2023/12/22 07:23:49;;;;;;;1.05;0.70;;;;;;;5.71;81.42;91580.81;2052020;70;20143;-80
2023/12/22 07:26:15;;;;;;;1.05;0.40;;;;;;;5.74;82.39;91574.00;2051998;70;20186;-81
2023/12/22 07:28:40;;;;;;;0.80;0.30;;;;;;;5.72;82.34;91570.34;2051919;70;20174;-81
2023/12/22 07:31:06;;;;;;;0.40;0.40;;;;;;;5.40;80.25;91560.75;2051872;70;20625;-81
2023/12/22 07:33:31;;;;;;;1.70;0.50;;;;;;;5.36;79.49;91555.66;2051849;70;20201;-82
2023/12/22 07:35:57;;;;;;;0.35;0.28;;;;;;;5.16;78.70;91543.25;2051802;70;20168;-81
2023/12/22 07:38:23;;;;;;;1.02;0.30;;;;;;;5.57;78.63;91544.38;2051725;70;20158;-82
2023/12/22 07:40:49;;;;;;;1.08;0.30;;;;;;;5.75;79.88;91532.84;2051989;70;20154;-81
2023/12/22 07:43:15;;;;;;;0.20;0.20;;;;;;;5.64;80.90;91539.91;2051929;70;20212;-82
2023/12/22 07:45:42;;;;;;;0.35;0.30;;;;;;;5.56;81.61;91565.25;2051142;70;20142;-82
2023/12/22 07:48:08;;;;;;;1.63;0.40;;;;;;;5.40;82.58;91553.09;2052043;70;20204;-82
2023/12/22 07:50:33;;;;;;;0.65;0.30;;;;;;;5.57;80.76;91557.63;2051781;70;20549;-82
2023/12/22 07:53:00;;;;;;;0.65;0.55;;;;;;;5.70;80.51;91553.50;2052040;70;20157;-82
2023/12/22 07:55:26;;;;;;;0.57;0.40;;;;;;;5.77;81.02;91567.22;2054504;70;20143;-81
2023/12/22 07:57:51;;;;;;;0.88;0.40;;;;;;;5.77;81.51;91592.34;2053603;70;20154;-84
2023/12/22 08:00:18;;;;;;;0.30;0.30;;;;;;;5.85;81.22;91608.84;2051375;70;20146;-84
2023/12/22 08:02:44;;;;;;;1.40;0.40;;;;;;;5.85;81.05;91597.69;2052027;70;20174;-84
2023/12/22 08:05:10;;;;;;;1.75;0.40;;;;;;;5.92;80.95;91587.63;2052152;70;20170;-83
2023/12/22 08:07:36;;;;;;;1.85;0.60;;;;;;;5.79;80.14;91597.31;2051996;70;20138;-83
2023/12/22 08:10:09;;;;;;;0.95;0.50;;;;;;;5.66;79.14;91609.09;2051901;70;20178;-84
2023/12/22 08:12:38;;;;;;;3.83;0.40;;;;;;;5.73;79.43;91620.03;2052040;70;20142;-85
2023/12/22 08:15:05;;;;;;;0.95;0.52;;;;;;;5.80;79.83;91633.00;2051984;70;20256;-84
2023/12/22 08:17:33;;;;;;;0.50;0.40;;;;;;;5.74;80.67;91627.06;2048462;70;20169;-81
2023/12/22 08:19:58;;;;;;;0.68;0.60;;;;;;;5.70;77.85;91607.28;2051808;70;20159;-83
2023/12/22 08:22:24;;;;;;;1.20;0.50;;;;;;;5.77;77.80;91639.06;2052025;70;20148;-84
2023/12/22 08:24:50;;;;;;;0.30;0.30;;;;;;;5.70;77.19;91645.63;2048227;70;20232;-83
2023/12/22 08:27:16;;;;;;;0.82;0.40;;;;;;;5.94;78.57;91624.06;2051905;70;20161;-83
2023/12/22 08:29:44;;;;;;;0.52;0.40;;;;;;;5.96;78.86;91657.72;2051817;70;20602;-83
2023/12/22 08:32:09;;;;;;;1.02;0.50;;;;;;;5.92;79.91;91646.31;2051917;70;20534;-83
2023/12/22 08:34:35;;;;;;;1.75;0.88;;;;;;;5.93;80.14;91656.84;2048155;70;20154;-83
2023/12/22 08:37:00;;;;;;;3.35;1.10;;;;;;;5.80;80.95;91660.94;2051653;70;20205;-84
2023/12/22 08:39:26;;;;;;;1.13;0.50;;;;;;;5.90;80.84;91660.81;2051060;70;20187;-83
2023/12/22 08:41:53;;;;;;;1.08;0.45;;;;;;;5.88;81.11;91640.44;2054181;70;20176;-82
2023/12/22 08:44:19;;;;;;;1.25;0.45;;;;;;;6.03;80.61;91690.25;2055200;70;20154;-82
2023/12/22 08:46:44;;;;;;;1.42;0.60;;;;;;;5.91;80.20;91679.06;2055183;70;20150;-83
2023/12/22 08:49:10;;;;;;;3.17;1.00;;;;;;;5.49;82.15;91691.09;2055246;70;20146;-83
2023/12/22 08:51:36;;;;;;;1.10;0.85;;;;;;;5.67;82.19;91683.88;2055120;70;20182;-83
2023/12/22 08:54:01;;;;;;;1.80;1.20;;;;;;;5.77;81.30;91676.13;2054421;69;20173;-81
2023/12/22 08:56:27;;;;;;;3.05;1.05;;;;;;;5.78;82.11;91674.06;2055296;69;20149;-82
2023/12/22 08:58:55;;;;;;;2.97;1.10;;;;;;;5.96;81.26;91661.25;2051650;70;20602;-82
2023/12/22 09:01:21;;;;;;;1.63;0.60;;;;;;;6.02;81.04;91664.41;2055263;69;20149;-83
2023/12/22 09:03:48;;;;;;;0.80;0.45;;;;;;;6.04;81.01;91672.16;2054560;69;20193;-83
2023/12/22 09:06:17;;;;;;;6.13;0.90;;;;;;;5.63;82.70;91705.22;2054299;70;20126;-83
2023/12/22 09:08:45;;;;;;;1.70;1.00;;;;;;;5.67;82.05;91683.88;2055148;69;20162;-84
2023/12/22 09:11:15;;;;;;;3.40;1.05;;;;;;;5.99;80.65;91696.34;2055212;69;20158;-83
2023/12/22 09:13:41;;;;;;;1.77;0.80;;;;;;;6.05;80.58;91696.72;2055322;70;20142;-84
2023/12/22 09:16:08;;;;;;;3.90;0.80;;;;;;;6.03;80.29;91674.22;2055246;70;20130;-82
2023/12/22 09:18:34;;;;;;;1.30;0.63;;;;;;;6.16;80.07;91683.34;2055209;69;20149;-83
2023/12/22 09:21:01;;;;;;;0.63;0.40;;;;;;;6.16;80.54;91672.19;2055335;69;20163;-87
2023/12/22 09:23:27;;;;;;;1.85;0.32;;;;;;;5.89;81.50;91645.41;2055492;69;20154;-82
2023/12/22 09:25:53;;;;;;;5.63;2.15;;;;;;;5.66;82.78;91650.97;2055790;69;20625;-83
2023/12/22 09:28:18;;;;;;;5.05;2.17;;;;;;;6.00;81.57;91667.09;2055116;70;20597;-82
2023/12/22 09:30:44;;;;;;;3.42;1.10;;;;;;;6.01;81.78;91684.56;2055501;70;20161;-81
2023/12/22 09:33:10;;;;;;;1.75;0.80;;;;;;;5.93;82.47;91717.59;2055167;70;20200;-83
2023/12/22 09:35:36;;;;;;;2.58;1.25;;;;;;;5.83;81.60;91726.03;2054967;70;20229;-81
2023/12/22 09:38:02;;;;;;;1.33;0.70;;;;;;;6.05;80.97;91723.94;2055222;69;20146;-80
2023/12/22 09:40:30;;;;;;;4.38;1.67;;;;;;;5.72;81.33;91718.34;2055246;69;20197;-80
2023/12/22 09:42:58;;;;;;;2.28;0.80;;;;;;;5.50;79.69;91712.84;2051614;70;20220;-80
2023/12/22 09:45:24;;;;;;;1.90;0.90;;;;;;;5.72;79.43;91687.63;2055221;70;20626;-81
2023/12/22 09:47:51;;;;;;;2.08;0.80;;;;;;;5.44;78.67;91704.06;2051625;70;20150;-80
2023/12/22 09:50:19;;;;;;;0.73;0.70;;;;;;;5.89;80.35;91712.44;2051407;70;20146;-80
2023/12/22 09:52:47;;;;;;;0.60;0.60;;;;;;;5.89;81.01;91717.31;2051531;70;20264;-79
2023/12/22 09:55:17;;;;;;;0.30;0.30;;;;;;;5.75;82.81;91700.41;2054467;70;20598;-83
2023/12/22 09:57:43;;;;;;;0.90;0.55;;;;;;;5.95;82.02;91693.28;2055129;69;20177;-81
2023/12/22 10:00:16;;;;;;;0.50;0.50;;;;;;;6.07;81.89;91705.22;2055000;70;20146;-81
2023/12/22 10:02:42;;;;;;;;;;;;;;;6.20;81.22;91689.91;2055217;70;20229;-80
2023/12/22 10:05:25;;;;;;;;;;;;;;;;;;;;;
2023/12/22 10:07:52;;;;;;;2.95;0.70;;;;;;;6.10;82.08;91687.25;2051855;70;20152;-81
2023/12/22 10:10:20;;;;;;;1.13;0.38;;;;;;;6.21;81.37;91669.00;2054936;70;20604;-80
2023/12/22 10:12:46;;;;;;;2.20;0.57;;;;;;;5.94;80.44;91675.06;2054877;70;20201;-81
2023/12/22 10:15:12;;;;;;;0.57;0.40;;;;;;;6.07;80.62;91660.50;2054899;70;20161;-81
2023/12/22 10:17:39;;;;;;;1.20;0.30;;;;;;;6.21;80.24;91674.59;2054858;70;20613;-79
2023/12/22 10:20:08;;;;;;;2.08;0.57;;;;;;;6.33;80.02;91669.03;2051343;70;20138;-78
2023/12/22 10:22:35;;;;;;;1.60;0.50;;;;;;;6.17;81.37;91663.19;2054912;70;20218;-79
2023/12/22 10:25:02;;;;;;;1.17;0.70;;;;;;;6.03;81.83;91679.81;2051456;70;20150;-78
2023/12/22 10:27:31;;;;;;;3.55;0.90;;;;;;;6.14;81.02;91666.44;2054895;70;20201;-79
2023/12/22 10:29:57;;;;;;;0.82;0.60;;;;;;;6.22;81.19;91675.31;2054851;70;20177;-79
2023/12/22 10:32:23;;;;;;;4.47;0.60;;;;;;;6.09;82.36;91682.25;2055136;70;20166;-79
2023/12/22 10:34:52;;;;;;;0.98;0.47;;;;;;;6.16;78.53;91672.19;2055380;69;20185;-81
2023/12/22 10:37:21;;;;;;;1.02;0.52;;;;;;;6.30;79.46;91670.22;2055271;70;20138;-80
2023/12/22 10:39:52;;;;;;;1.33;0.45;;;;;;;5.71;77.32;91678.53;2055432;69;20173;-80
2023/12/22 10:42:18;;;;;;;0.50;0.50;;;;;;;6.02;77.66;91674.84;2055446;70;20234;-81
2023/12/22 10:44:45;;;;;;;1.02;0.73;;;;;;;5.80;79.11;91676.97;2055403;70;20717;-80
2023/12/22 10:47:11;;;;;;;0.95;0.50;;;;;;;6.13;80.32;91671.31;2051917;70;20146;-79
2023/12/22 10:49:37;;;;;;;1.02;0.43;;;;;;;6.22;80.74;91664.88;2054741;70;20212;-79
2023/12/22 10:52:02;;;;;;;0.88;0.52;;;;;;;5.81;83.18;91667.25;2055485;69;20230;-78
2023/12/22 10:54:30;;;;;;;3.88;0.80;;;;;;;6.24;81.13;91667.09;2055288;70;20225;-78
2023/12/22 10:57:00;;;;;;;1.13;0.43;;;;;;;6.32;80.87;91670.34;2055314;69;20178;-78
2023/12/22 10:59:32;;;;;;;3.75;0.57;;;;;;;6.02;81.45;91672.78;2055353;70;20138;-78
2023/12/22 11:01:58;;;;;;;2.60;0.60;;;;;;;5.94;81.60;91668.75;2055266;69;20146;-80
2023/12/22 11:04:31;;;;;;;1.38;0.93;;;;;;;6.06;81.21;91692.59;2055089;70;20149;-79
2023/12/22 11:06:59;;;;;;;1.55;0.93;;;;;;;6.20;80.69;91694.78;2055223;70;20165;-79
2023/12/22 11:09:36;;;;;;;1.55;0.70;;;;;;;6.19;80.64;91677.28;2054649;70;20291;-80
2023/12/22 11:12:02;;;;;;;0.85;0.73;;;;;;;6.31;80.00;91686.38;2055174;70;20146;-82
2023/12/22 11:14:30;;;;;;;1.90;1.10;;;;;;;5.81;82.88;91703.56;2055176;69;20594;-79
2023/12/22 11:17:01;;;;;;;2.30;0.80;;;;;;;6.22;81.22;91700.47;2055492;70;20612;-81
2023/12/22 11:19:30;;;;;;;1.33;0.98;;;;;;;6.31;80.54;91716.41;2055461;69;20138;-80
2023/12/22 11:21:58;;;;;;;2.78;0.98;;;;;;;5.92;81.61;91714.06;2051904;70;20617;-79
2023/12/22 11:24:28;;;;;;;3.97;0.80;;;;;;;6.06;80.88;91697.44;2055449;69;20164;-81
2023/12/22 11:26:57;;;;;;;8.63;6.90;;;;;;;6.03;81.66;91718.94;2055497;69;20134;-82
2023/12/22 11:29:25;;;;;;;1.23;0.98;;;;;;;5.97;82.11;91715.03;2055368;69;20177;-82
2023/12/22 11:31:56;;;;;;;1.25;0.80;;;;;;;6.10;81.07;91697.69;2055335;69;20149;-82
2023/12/22 11:34:26;;;;;;;7.80;6.85;;;;;;;5.79;80.23;91686.69;2055218;69;20169;-79
2023/12/22 11:36:53;;;;;;;2.33;1.85;;;;;;;6.12;80.12;91681.03;2055185;70;20209;-79
2023/12/22 11:39:19;;;;;;;1.55;0.70;;;;;;;6.25;80.34;91674.84;2051758;70;20134;-78
2023/12/22 11:41:47;;;;;;;1.40;0.52;;;;;;;6.27;80.43;91688.94;2055413;69;20165;-80
2023/12/22 11:44:14;;;;;;;2.83;1.08;;;;;;;6.23;80.54;91685.91;2055274;69;20308;-80